Allen Springs, Kentucky
Current Conditions -  °F | °C
As of 2:53 PM on Tuesday 21 Oct 2014 (Local Time) from KBWG Reporting Station
Scattered Clouds Scattered Clouds  
Wind Chill: 20°   Ceiling: Unl
Heat Index: 20°   Visibility: 10mi
Dew Point:   Wind: 7mph
Humidity: 42%   Direction: 340°NNW
Pressure: 30.05"   Gusts: NA
Location:  36.8592°N, 86.3531°W
Report Text: KBWG 211953Z AUTO 34006KT 10SM SCT050 20/07 A3005 RMK AO2 SLP173 T02000067
Loading
Personal Weather Stations






























Interactive Weather Map
Tropical Storm Tracking
New forecast layout! Learn more

10-Day Weather Forecast

Advertisements
Track Severe Weather on mobile